createdAt,value
2018-09-09T00:00:50.375Z,3.97
2018-09-09T00:03:18.904Z,4.07
2018-09-09T00:05:47.345Z,4.37
2018-09-09T00:08:15.797Z,4.27
2018-09-09T00:10:44.310Z,4.00
2018-09-09T00:13:12.901Z,4.50
2018-09-09T00:15:41.391Z,4.07
2018-09-09T00:18:09.875Z,4.53
2018-09-09T00:20:38.367Z,4.67
2018-09-09T00:23:07.007Z,4.30
2018-09-09T00:25:35.803Z,4.30
2018-09-09T00:28:04.879Z,4.47
2018-09-09T00:30:33.606Z,4.50
2018-09-09T00:33:02.142Z,4.40
2018-09-09T00:35:30.556Z,4.90
2018-09-09T00:37:59.294Z,4.13
2018-09-09T00:40:27.739Z,4.17
2018-09-09T00:42:56.244Z,4.97
2018-09-09T00:45:24.765Z,4.40
2018-09-09T00:47:53.216Z,4.30
2018-09-09T00:50:27.042Z,4.70
2018-09-09T00:53:01.150Z,4.23
2018-09-09T00:55:29.625Z,4.30
2018-09-09T00:57:58.095Z,4.60
2018-09-09T01:00:32.056Z,4.47
2018-09-09T01:06:04.704Z,4.80
2018-09-09T01:08:34.027Z,4.70
2018-09-09T01:11:05.742Z,4.43
2018-09-09T01:13:34.329Z,4.47
2018-09-09T01:16:03.000Z,4.37
2018-09-09T01:18:32.599Z,4.73
2018-09-09T01:21:01.623Z,5.40
2018-09-09T01:23:30.297Z,5.03
2018-09-09T01:25:59.314Z,4.77
2018-09-09T01:28:27.832Z,5.40
2018-09-09T01:30:57.102Z,4.83
2018-09-09T01:33:25.622Z,4.60
2018-09-09T01:35:54.940Z,5.03
2018-09-09T01:38:23.383Z,5.20
2018-09-09T01:40:51.846Z,4.67
2018-09-09T01:43:20.310Z,4.60
2018-09-09T01:45:48.766Z,4.77
2018-09-09T01:48:17.202Z,4.70
2018-09-09T01:50:45.658Z,5.10
2018-09-09T01:53:14.093Z,5.10
2018-09-09T01:55:42.569Z,5.03
2018-09-09T01:58:11.012Z,5.17
2018-09-09T02:00:39.472Z,4.93
2018-09-09T02:03:07.938Z,5.20
2018-09-09T02:05:36.398Z,5.07
2018-09-09T02:08:04.962Z,4.80
2018-09-09T02:10:33.415Z,4.83
2018-09-09T02:13:01.868Z,5.20
2018-09-09T02:15:30.341Z,4.80
2018-09-09T02:17:58.743Z,4.93
2018-09-09T02:20:27.225Z,5.30
2018-09-09T02:22:55.729Z,5.00
2018-09-09T02:25:24.201Z,5.43
2018-09-09T02:27:52.690Z,4.87
2018-09-09T02:30:21.139Z,4.90
2018-09-09T02:32:49.614Z,4.80
2018-09-09T02:35:18.058Z,4.90
2018-09-09T02:37:46.586Z,4.70
2018-09-09T02:40:15.020Z,4.90
2018-09-09T02:42:43.502Z,4.57
2018-09-09T02:45:11.916Z,4.37
2018-09-09T02:47:40.386Z,4.80
2018-09-09T02:50:08.839Z,4.73
2018-09-09T02:52:37.268Z,4.60
2018-09-09T02:55:05.706Z,5.13
2018-09-09T02:57:34.135Z,4.40
2018-09-09T03:00:02.554Z,4.90
2018-09-09T03:02:31.121Z,4.67
2018-09-09T03:04:59.539Z,4.77
2018-09-09T03:07:28.010Z,4.80
2018-09-09T03:09:56.443Z,4.73
2018-09-09T03:12:24.877Z,4.40
2018-09-09T03:14:53.328Z,5.10
2018-09-09T03:17:21.859Z,5.43
2018-09-09T03:19:50.317Z,4.27
2018-09-09T03:22:18.727Z,5.27
2018-09-09T03:24:47.208Z,4.77
2018-09-09T03:27:15.632Z,4.43
2018-09-09T03:29:44.094Z,4.77
2018-09-09T03:32:12.562Z,4.80
2018-09-09T03:34:41.037Z,4.83
2018-09-09T03:37:09.467Z,4.57
2018-09-09T03:39:37.927Z,4.70
2018-09-09T03:42:06.484Z,5.00
2018-09-09T03:44:34.967Z,4.97
2018-09-09T03:47:03.500Z,4.33
2018-09-09T03:49:32.187Z,4.63
2018-09-09T03:52:00.644Z,4.90
2018-09-09T03:54:29.106Z,4.33
2018-09-09T03:56:57.528Z,4.70
2018-09-09T03:59:25.990Z,4.53
2018-09-09T04:01:54.526Z,5.23
2018-09-09T04:04:22.983Z,4.50
2018-09-09T04:06:51.517Z,5.10
2018-09-09T04:09:19.947Z,4.50
2018-09-09T04:11:48.373Z,4.80
2018-09-09T04:14:16.810Z,5.00
2018-09-09T04:16:45.281Z,4.70
2018-09-09T04:19:13.751Z,4.30
2018-09-09T04:21:47.461Z,4.23
2018-09-09T04:24:15.907Z,5.07
2018-09-09T04:26:44.369Z,4.30
2018-09-09T04:29:13.013Z,4.17
2018-09-09T04:31:41.599Z,4.10
2018-09-09T04:34:10.256Z,3.90
2018-09-09T04:36:38.755Z,3.73
2018-09-09T04:39:09.635Z,4.03
2018-09-09T04:41:38.252Z,3.53
2018-09-09T04:44:06.896Z,3.50
2018-09-09T04:46:35.382Z,3.30
2018-09-09T04:49:03.830Z,3.30
2018-09-09T04:51:32.358Z,3.50
2018-09-09T04:54:00.782Z,3.33
2018-09-09T04:56:29.281Z,3.37
2018-09-09T04:58:57.735Z,3.20
2018-09-09T05:01:26.272Z,3.40
2018-09-09T05:03:54.699Z,3.43
2018-09-09T05:06:23.150Z,3.20
2018-09-09T05:08:51.624Z,3.47
2018-09-09T05:11:20.101Z,3.50
2018-09-09T05:13:48.755Z,3.20
2018-09-09T05:16:17.211Z,3.50
2018-09-09T05:18:45.745Z,2.90
2018-09-09T05:21:14.238Z,3.30
2018-09-09T05:23:42.685Z,3.03
2018-09-09T05:26:11.186Z,3.20
2018-09-09T05:28:39.679Z,3.47
2018-09-09T05:31:08.143Z,3.30
2018-09-09T05:33:36.696Z,3.03
2018-09-09T05:36:05.207Z,2.93
2018-09-09T05:38:33.667Z,2.73
2018-09-09T05:41:02.170Z,2.87
2018-09-09T05:43:30.662Z,2.70
2018-09-09T05:45:59.125Z,2.33
2018-09-09T05:48:27.627Z,2.77
2018-09-09T05:50:56.238Z,2.63
2018-09-09T05:53:24.740Z,2.93
2018-09-09T05:55:53.257Z,3.17
2018-09-09T05:58:22.366Z,2.90
2018-09-09T06:00:50.912Z,2.63
2018-09-09T06:03:19.464Z,2.80
2018-09-09T06:05:47.937Z,2.90
2018-09-09T06:08:16.390Z,2.80
2018-09-09T06:10:45.618Z,2.90
2018-09-09T06:13:14.262Z,3.10
2018-09-09T06:15:42.760Z,3.37
2018-09-09T06:18:11.284Z,3.07
2018-09-09T06:20:39.803Z,3.00
2018-09-09T06:23:08.299Z,3.13
2018-09-09T06:25:36.814Z,3.27
2018-09-09T06:28:05.311Z,3.07
2018-09-09T06:30:33.801Z,3.40
2018-09-09T06:33:02.369Z,3.40
2018-09-09T06:35:30.871Z,3.33
2018-09-09T06:37:59.367Z,2.83
2018-09-09T06:40:27.864Z,2.93
2018-09-09T06:42:56.343Z,2.90
2018-09-09T06:45:24.892Z,2.60
2018-09-09T06:47:53.349Z,2.70
2018-09-09T06:50:21.835Z,2.80
2018-09-09T06:52:50.334Z,2.87
2018-09-09T06:55:18.890Z,3.10
2018-09-09T06:57:47.364Z,2.77
2018-09-09T07:00:15.846Z,2.90
2018-09-09T07:02:44.419Z,2.63
2018-09-09T07:05:12.837Z,3.47
2018-09-09T07:07:41.338Z,2.80
2018-09-09T07:10:09.784Z,3.10
2018-09-09T07:12:38.268Z,3.30
2018-09-09T07:15:06.776Z,3.40
2018-09-09T07:17:35.265Z,3.33
2018-09-09T07:20:03.773Z,3.90
2018-09-09T07:22:32.449Z,3.97
2018-09-09T07:25:00.945Z,4.23
2018-09-09T07:27:29.430Z,3.80
2018-09-09T07:29:57.877Z,4.30
2018-09-09T07:32:26.409Z,4.23
2018-09-09T07:34:54.846Z,4.53
2018-09-09T07:37:23.415Z,4.07
2018-09-09T07:39:51.882Z,4.37
2018-09-09T07:42:20.370Z,4.60
2018-09-09T07:44:48.810Z,4.73
2018-09-09T07:47:17.296Z,4.57
2018-09-09T07:49:45.756Z,4.13
2018-09-09T07:52:14.218Z,4.70
2018-09-09T07:54:42.714Z,3.90
2018-09-09T07:57:11.131Z,3.90
2018-09-09T07:59:39.646Z,4.07
2018-09-09T08:02:08.106Z,4.67
2018-09-09T08:04:36.726Z,4.30
2018-09-09T08:07:05.168Z,4.40
2018-09-09T08:09:33.629Z,4.23
2018-09-09T08:12:02.107Z,4.00
2018-09-09T08:14:30.570Z,4.07
2018-09-09T08:16:59.056Z,3.90
2018-09-09T08:19:27.514Z,4.00
2018-09-09T08:21:55.975Z,4.20
2018-09-09T08:24:24.434Z,4.13
2018-09-09T08:26:52.862Z,4.10
2018-09-09T08:29:21.339Z,4.17
2018-09-09T08:31:49.838Z,4.43
2018-09-09T08:34:18.375Z,4.00
2018-09-09T08:36:46.807Z,4.10
2018-09-09T08:39:15.298Z,4.50
2018-09-09T08:41:43.794Z,4.03
2018-09-09T08:44:12.237Z,3.97
2018-09-09T08:46:40.705Z,3.93
2018-09-09T08:49:09.195Z,4.10
2018-09-09T08:51:37.682Z,4.17
2018-09-09T08:54:06.296Z,3.50
2018-09-09T08:56:34.797Z,4.10
2018-09-09T08:59:03.280Z,3.77
2018-09-09T09:01:31.866Z,4.23
2018-09-09T09:04:00.353Z,4.60
2018-09-09T09:06:28.864Z,3.87
2018-09-09T09:08:57.402Z,4.30
2018-09-09T09:11:25.883Z,3.63
2018-09-09T09:13:55.371Z,4.07
2018-09-09T09:16:23.928Z,4.20
2018-09-09T09:18:52.412Z,4.20
2018-09-09T09:21:20.996Z,3.67
2018-09-09T09:23:49.489Z,4.70
2018-09-09T09:26:17.976Z,4.17
2018-09-09T09:28:46.477Z,4.27
2018-09-09T09:31:15.002Z,4.63
2018-09-09T09:33:43.543Z,3.70
2018-09-09T09:36:12.013Z,4.10
2018-09-09T09:38:40.506Z,4.07
2018-09-09T09:41:09.062Z,4.07
2018-09-09T09:43:37.551Z,3.97
2018-09-09T09:46:06.041Z,3.90
2018-09-09T09:48:34.528Z,4.40
2018-09-09T09:51:03.041Z,4.80
2018-09-09T09:53:31.627Z,4.30
2018-09-09T09:56:00.087Z,4.67
2018-09-09T09:58:28.562Z,5.43
2018-09-09T10:00:58.932Z,5.10
2018-09-09T10:03:27.507Z,5.60
2018-09-09T10:05:55.982Z,5.20
2018-09-09T10:08:24.789Z,4.80
2018-09-09T10:10:54.809Z,4.33
2018-09-09T10:13:23.895Z,4.57
2018-09-09T10:15:52.395Z,3.87
2018-09-09T10:18:21.513Z,3.70
2018-09-09T10:20:50.040Z,3.10
2018-09-09T10:23:18.768Z,3.07
2018-09-09T10:25:47.310Z,3.10
2018-09-09T10:28:15.877Z,2.60
2018-09-09T10:30:44.331Z,3.97
2018-09-09T10:33:12.898Z,3.67
2018-09-09T10:35:41.541Z,3.57
2018-09-09T10:38:10.070Z,3.90
2018-09-09T10:40:38.874Z,2.97
2018-09-09T10:43:07.356Z,2.87
2018-09-09T10:45:36.163Z,3.30
2018-09-09T10:48:04.669Z,2.70
2018-09-09T10:50:34.345Z,3.20
2018-09-09T10:53:04.109Z,3.40
2018-09-09T10:55:35.509Z,3.03
2018-09-09T10:58:04.621Z,2.70
2018-09-09T11:00:33.987Z,2.40
2018-09-09T11:03:03.491Z,2.37
2018-09-09T11:05:32.167Z,2.10
2018-09-09T11:08:02.798Z,2.20
2018-09-09T11:10:41.080Z,2.20
2018-09-09T11:13:09.795Z,2.30
2018-09-09T11:15:38.830Z,2.27
2018-09-09T11:18:07.347Z,2.53
2018-09-09T11:20:35.991Z,1.93
2018-09-09T11:23:04.508Z,1.83
2018-09-09T11:25:33.212Z,2.20
2018-09-09T11:28:01.903Z,2.17
2018-09-09T11:30:30.434Z,2.53
2018-09-09T11:32:58.927Z,2.70
2018-09-09T11:35:27.466Z,2.43
2018-09-09T11:37:57.188Z,2.20
2018-09-09T11:40:26.272Z,2.27
2018-09-09T11:42:57.483Z,2.10
2018-09-09T11:45:26.236Z,2.33
2018-09-09T11:47:55.849Z,2.20
2018-09-09T11:50:24.354Z,2.10
2018-09-09T11:52:52.912Z,2.10
2018-09-09T11:55:21.353Z,1.90
2018-09-09T11:57:50.021Z,2.40
2018-09-09T12:00:19.152Z,2.37
2018-09-09T12:02:48.433Z,2.13
2018-09-09T12:05:17.601Z,2.53
2018-09-09T12:07:46.107Z,2.50
2018-09-09T12:10:14.697Z,2.00
2018-09-09T12:12:43.265Z,2.20
2018-09-09T12:15:12.620Z,1.90
2018-09-09T12:17:42.084Z,2.20
2018-09-09T12:20:10.769Z,2.00
2018-09-09T12:22:39.305Z,1.80
2018-09-09T12:25:09.157Z,1.90
2018-09-09T12:27:37.934Z,2.00
2018-09-09T12:30:07.247Z,1.93
2018-09-09T12:32:37.257Z,1.80
2018-09-09T12:35:06.304Z,1.90
2018-09-09T12:37:35.280Z,2.00
2018-09-09T12:40:04.303Z,2.17
2018-09-09T12:42:34.356Z,2.00
2018-09-09T12:45:08.853Z,2.20
2018-09-09T12:47:43.117Z,1.97
2018-09-09T12:50:12.288Z,2.33
2018-09-09T12:52:41.345Z,2.07
2018-09-09T12:55:10.434Z,2.50
2018-09-09T12:57:39.384Z,1.70
2018-09-09T13:00:09.197Z,1.40
2018-09-09T13:02:39.929Z,1.50
2018-09-09T13:05:09.444Z,1.90
2018-09-09T13:07:38.308Z,1.77
2018-09-09T13:10:07.184Z,1.50
2018-09-09T13:12:41.243Z,1.50
2018-09-09T13:15:10.008Z,1.70
2018-09-09T13:17:38.703Z,1.70
2018-09-09T13:20:07.276Z,1.60
2018-09-09T13:22:35.847Z,1.60
2018-09-09T13:25:04.477Z,1.80
2018-09-09T13:27:33.190Z,1.70
2018-09-09T13:30:01.901Z,1.60
2018-09-09T13:32:30.651Z,1.60
2018-09-09T13:34:59.410Z,1.67
2018-09-09T13:37:27.985Z,1.70
2018-09-09T13:39:56.660Z,2.23
2018-09-09T13:42:25.157Z,1.80
2018-09-09T13:44:53.706Z,1.70
2018-09-09T13:47:22.525Z,1.70
2018-09-09T13:49:51.041Z,1.63
2018-09-09T13:52:19.614Z,1.50
2018-09-09T13:54:48.204Z,1.90
2018-09-09T13:57:16.801Z,1.60
2018-09-09T13:59:45.386Z,1.53
2018-09-09T14:02:14.204Z,1.73
2018-09-09T14:04:42.722Z,1.50
2018-09-09T14:07:11.295Z,1.70
2018-09-09T14:09:39.820Z,1.37
2018-09-09T14:12:08.737Z,1.73
2018-09-09T14:14:37.423Z,1.47
2018-09-09T14:17:06.282Z,1.43
2018-09-09T14:19:34.814Z,1.60
2018-09-09T14:22:03.525Z,1.90
2018-09-09T14:24:32.246Z,1.70
2018-09-09T14:27:00.784Z,1.87
2018-09-09T14:29:29.339Z,1.90
2018-09-09T14:31:58.052Z,1.30
2018-09-09T14:34:27.321Z,2.27
2018-09-09T14:36:56.030Z,1.40
2018-09-09T14:39:25.086Z,1.20
2018-09-09T14:41:53.545Z,4.90
2018-09-09T14:44:22.149Z,2.03
2018-09-09T14:46:51.920Z,2.57
2018-09-09T14:49:21.087Z,1.40
2018-09-09T14:51:49.738Z,2.60
2018-09-09T14:54:18.396Z,1.80
2018-09-09T14:56:47.184Z,1.47
2018-09-09T14:59:16.220Z,1.40
2018-09-09T15:01:46.230Z,1.70
2018-09-09T15:04:14.849Z,1.77
2018-09-09T15:06:43.487Z,1.30
2018-09-09T15:09:13.043Z,1.70
2018-09-09T15:11:41.933Z,1.40
2018-09-09T15:14:10.943Z,1.60
2018-09-09T15:16:39.570Z,1.50
2018-09-09T15:19:08.117Z,1.70
2018-09-09T15:21:38.612Z,1.70
2018-09-09T15:24:07.358Z,1.50
2018-09-09T15:26:35.954Z,1.47
2018-09-09T15:29:04.605Z,1.50
2018-09-09T15:31:33.207Z,1.50
2018-09-09T15:34:02.102Z,1.63
2018-09-09T15:36:30.680Z,1.57
2018-09-09T15:38:59.232Z,2.20
2018-09-09T15:41:31.052Z,1.70
2018-09-09T15:43:59.971Z,1.43
2018-09-09T15:46:28.866Z,1.77
2018-09-09T15:48:57.565Z,1.60
2018-09-09T15:51:26.615Z,1.90
2018-09-09T15:53:55.901Z,1.80
2018-09-09T15:56:25.349Z,1.23
2018-09-09T15:58:54.576Z,1.60
2018-09-09T16:01:23.491Z,1.53
2018-09-09T16:03:52.406Z,1.80
2018-09-09T16:06:21.558Z,1.90
2018-09-09T16:08:50.516Z,1.70
2018-09-09T16:11:19.158Z,1.83
2018-09-09T16:13:48.580Z,1.80
2018-09-09T16:16:18.657Z,1.93
2018-09-09T16:18:47.476Z,1.80
2018-09-09T16:21:16.541Z,1.60
2018-09-09T16:23:46.075Z,2.00
2018-09-09T16:26:14.950Z,1.60
2018-09-09T16:28:44.221Z,1.83
2018-09-09T16:31:13.609Z,1.73
2018-09-09T16:33:43.713Z,1.70
2018-09-09T16:36:12.472Z,1.73
2018-09-09T16:38:41.122Z,1.70
2018-09-09T16:41:09.938Z,1.80
2018-09-09T16:43:38.711Z,1.80
2018-09-09T16:46:08.739Z,2.03
2018-09-09T16:48:37.815Z,1.60
2018-09-09T16:51:06.460Z,1.83
2018-09-09T16:53:35.774Z,1.60
2018-09-09T16:56:04.631Z,1.50
2018-09-09T16:58:33.943Z,2.57
2018-09-09T17:01:03.134Z,1.60
2018-09-09T17:03:31.735Z,1.50
2018-09-09T17:06:01.347Z,2.70
2018-09-09T17:08:29.914Z,1.70
2018-09-09T17:10:58.404Z,1.70
2018-09-09T17:13:26.941Z,1.77
2018-09-09T17:15:55.496Z,1.60
2018-09-09T17:18:24.143Z,1.70
2018-09-09T17:20:52.958Z,1.77
2018-09-09T17:23:21.391Z,1.70
2018-09-09T17:25:50.486Z,2.13
2018-09-09T17:28:18.972Z,1.60
2018-09-09T17:30:47.491Z,1.90
2018-09-09T17:33:16.061Z,1.60
2018-09-09T17:35:44.605Z,1.80
2018-09-09T17:38:13.041Z,1.70
2018-09-09T17:40:41.665Z,2.03
2018-09-09T17:43:10.981Z,2.07
2018-09-09T17:45:39.499Z,1.90
2018-09-09T17:48:08.024Z,1.90
2018-09-09T17:50:36.530Z,1.70
2018-09-09T17:53:05.108Z,1.90
2018-09-09T17:55:33.655Z,1.60
2018-09-09T17:58:02.232Z,2.00
2018-09-09T18:00:30.824Z,1.80
2018-09-09T18:02:59.342Z,1.57
2018-09-09T18:05:27.867Z,1.60
2018-09-09T18:07:56.352Z,1.70
2018-09-09T18:10:24.820Z,1.70
2018-09-09T18:12:53.342Z,1.60
2018-09-09T18:15:21.979Z,1.87
2018-09-09T18:17:50.482Z,1.93
2018-09-09T18:20:18.981Z,2.00
2018-09-09T18:22:47.448Z,1.77
2018-09-09T18:25:15.957Z,2.00
2018-09-09T18:27:44.419Z,1.90
2018-09-09T18:30:12.897Z,1.90
2018-09-09T18:32:41.395Z,2.03
2018-09-09T18:35:09.884Z,1.73
2018-09-09T18:37:38.434Z,1.87
2018-09-09T18:40:06.892Z,1.83
2018-09-09T18:42:35.416Z,2.13
2018-09-09T18:45:04.023Z,1.80
2018-09-09T18:47:32.435Z,2.07
2018-09-09T18:50:00.935Z,1.70
2018-09-09T18:52:29.365Z,1.90
2018-09-09T18:54:57.800Z,1.63
2018-09-09T18:57:26.321Z,1.90
2018-09-09T18:59:54.853Z,2.10
2018-09-09T19:02:23.444Z,1.80
2018-09-09T19:04:51.891Z,2.13
2018-09-09T19:07:20.472Z,1.80
2018-09-09T19:09:48.977Z,2.20
2018-09-09T19:12:17.543Z,1.90
2018-09-09T19:14:46.002Z,2.30
2018-09-09T19:17:14.503Z,1.90
2018-09-09T19:19:43.064Z,2.23
2018-09-09T19:22:11.525Z,2.13
2018-09-09T19:24:40.013Z,2.20
2018-09-09T19:27:08.522Z,1.67
2018-09-09T19:29:37.039Z,2.30
2018-09-09T19:32:06.557Z,2.53
2018-09-09T19:34:35.250Z,3.17
2018-09-09T19:37:03.807Z,3.17
2018-09-09T19:39:33.038Z,2.40
2018-09-09T19:42:01.625Z,2.30
2018-09-09T19:44:30.148Z,2.03
2018-09-09T19:47:00.532Z,2.27
2018-09-09T19:49:29.082Z,2.20
2018-09-09T19:51:57.604Z,2.10
2018-09-09T19:54:26.106Z,2.50
2018-09-09T19:56:54.676Z,2.40
2018-09-09T19:59:23.323Z,2.33
2018-09-09T20:01:52.140Z,2.23
2018-09-09T20:04:21.566Z,2.63
2018-09-09T20:06:50.512Z,2.30
2018-09-09T20:09:18.999Z,2.17
2018-09-09T20:11:47.467Z,2.17
2018-09-09T20:14:15.915Z,2.30
2018-09-09T20:16:44.530Z,2.23
2018-09-09T20:19:13.002Z,2.37
2018-09-09T20:21:41.590Z,2.43
2018-09-09T20:24:10.041Z,2.20
2018-09-09T20:26:38.565Z,2.37
2018-09-09T20:29:07.034Z,2.20
2018-09-09T20:31:35.494Z,2.23
2018-09-09T20:34:04.025Z,3.20
2018-09-09T20:36:32.482Z,2.60
2018-09-09T20:39:01.012Z,2.37
2018-09-09T20:41:29.476Z,2.80
2018-09-09T20:43:58.004Z,2.30
2018-09-09T20:46:26.478Z,2.67
2018-09-09T20:48:54.955Z,2.30
2018-09-09T20:51:23.441Z,2.27
2018-09-09T20:53:51.945Z,2.37
2018-09-09T20:56:20.974Z,2.50
2018-09-09T20:58:49.650Z,2.20
2018-09-09T21:01:18.304Z,2.40
2018-09-09T21:03:47.456Z,2.43
2018-09-09T21:06:16.115Z,2.30
2018-09-09T21:08:45.389Z,2.20
2018-09-09T21:11:14.458Z,2.63
2018-09-09T21:13:43.078Z,2.47
2018-09-09T21:16:11.700Z,2.50
2018-09-09T21:18:40.196Z,2.50
2018-09-09T21:21:08.738Z,2.50
2018-09-09T21:23:37.242Z,2.60
2018-09-09T21:26:06.082Z,2.50
2018-09-09T21:28:34.541Z,2.57
2018-09-09T21:31:03.000Z,2.37
2018-09-09T21:33:31.795Z,2.30
2018-09-09T21:36:00.254Z,2.63
2018-09-09T21:38:28.819Z,2.80
2018-09-09T21:40:57.394Z,3.27
2018-09-09T21:43:25.930Z,2.77
2018-09-09T21:45:54.386Z,2.63
2018-09-09T21:48:22.831Z,2.63
2018-09-09T21:50:51.366Z,2.40
2018-09-09T21:53:19.805Z,2.33
2018-09-09T21:55:48.293Z,2.80
2018-09-09T21:58:16.754Z,2.70
2018-09-09T22:00:50.539Z,2.90
2018-09-09T22:03:19.068Z,2.50
2018-09-09T22:05:47.583Z,2.73
2018-09-09T22:08:16.054Z,3.53
2018-09-09T22:10:44.544Z,2.57
2018-09-09T22:13:13.071Z,2.60
2018-09-09T22:15:41.534Z,2.60
2018-09-09T22:18:10.007Z,2.83
2018-09-09T22:20:38.566Z,3.13
2018-09-09T22:23:07.384Z,2.43
2018-09-09T22:25:37.051Z,2.50
2018-09-09T22:28:06.425Z,2.50
2018-09-09T22:30:35.131Z,2.60
2018-09-09T22:33:03.922Z,2.23
2018-09-09T22:35:32.722Z,2.40
2018-09-09T22:38:01.520Z,2.10
2018-09-09T22:40:30.204Z,2.17
2018-09-09T22:42:58.884Z,2.40
2018-09-09T22:45:27.496Z,2.10
2018-09-09T22:47:55.997Z,2.13
2018-09-09T22:50:24.550Z,1.90
2018-09-09T22:52:53.496Z,2.10
2018-09-09T22:55:22.057Z,2.20
2018-09-09T22:57:50.666Z,1.80
2018-09-09T23:00:19.095Z,1.80
2018-09-09T23:02:47.799Z,1.80
2018-09-09T23:05:16.346Z,1.90
2018-09-09T23:07:44.907Z,1.90
2018-09-09T23:10:13.404Z,1.90
2018-09-09T23:12:42.218Z,2.10
2018-09-09T23:15:10.719Z,1.60
2018-09-09T23:17:39.292Z,1.83
2018-09-09T23:20:07.871Z,1.83
2018-09-09T23:22:36.369Z,1.63
2018-09-09T23:25:05.290Z,2.43
2018-09-09T23:27:34.479Z,1.93
2018-09-09T23:30:03.119Z,1.70
2018-09-09T23:32:31.803Z,2.30
2018-09-09T23:35:00.452Z,2.17
2018-09-09T23:37:29.204Z,1.87
2018-09-09T23:39:57.877Z,1.80
2018-09-09T23:42:26.630Z,2.30
2018-09-09T23:44:55.211Z,1.80
2018-09-09T23:47:23.819Z,1.87
2018-09-09T23:49:52.787Z,2.20
2018-09-09T23:52:21.286Z,1.70
2018-09-09T23:54:49.869Z,1.77
2018-09-09T23:57:18.398Z,2.10
2018-09-09T23:59:46.964Z,1.87
